Time;durP1;ratioP1;P1;durP2;ratioP2;P2;SDS_P1;SDS_P2;PMS_P1;PMS_P2;Temp;Humidity;BMP_temperature;BMP_pressure;BME280_temperature;BME280_humidity;BME280_pressure;Samples;Min_cycle;Max_cycle;Signal;HPM_P1;HPM_P2
2023/10/07 00:01:37;;;;;;;;;;;;;;;;;;5051859;28;951;-71
2023/10/07 00:04:05;;;;;;;;;;;;;;;;;;5050720;28;1381;-71
2023/10/07 00:06:31;;;;;;;;;;;;;;;;;;5052020;28;1029;-71
2023/10/07 00:08:58;;;;;;;;;;;;;;;;;;5051637;28;1977;-71
2023/10/07 00:11:27;;;;;;;;;;;;;;;;;;5051108;28;904;-71
2023/10/07 00:13:54;;;;;;;;;;;;;;;;;;5051587;28;832;-70
2023/10/07 00:16:21;;;;;;;;;;;;;;;;;;5049593;28;1361;-71
2023/10/07 00:18:46;;;;;;;;;;;;;;;;;;5051202;28;1062;-71
2023/10/07 00:21:15;;;;;;;;;;;;;;;;;;5050836;28;821;-70
2023/10/07 00:23:42;;;;;;;;;;;;;;;;;;5050021;28;967;-70
2023/10/07 00:26:09;;;;;;;;;;;;;;;;;;5050543;28;860;-71
2023/10/07 00:28:36;;;;;;;;;;;;;;;;;;5051129;28;1967;-72
2023/10/07 00:31:12;;;;;;;;;;;;;;;;;;5049597;28;1338;-71
2023/10/07 00:34:02;;;;;;;;;;;;;;;;;;5051744;28;813;-72
2023/10/07 00:39:08;;;;;;;;;;;;;;;;;;5050140;28;885;-72
2023/10/07 00:41:48;;;;;;;;;;;;;;;;;;5051979;28;844;-71
2023/10/07 00:44:23;;;;;;;;;;;;;;;;;;5051509;28;959;-71
2023/10/07 00:49:40;;;;;;;;;;;;;;;;;;5051236;28;1894;-72
2023/10/07 00:52:11;;;;;;;;;;;;;;;;;;5049389;28;1418;-71
2023/10/07 00:57:24;;;;;;;;;;;;;;;;;;5051164;28;758;-72
2023/10/07 00:59:50;;;;;;;;;;;;;;;;;;5050629;28;955;-71
2023/10/07 01:02:22;;;;;;;;;;;;;;;;;;5049527;28;845;-72
2023/10/07 01:04:48;;;;;;;;;;;;;;;;;;5049346;28;833;-71
2023/10/07 01:07:19;;;;;;;;;;;;;;;;;;5049979;28;1898;-71
2023/10/07 01:09:58;;;;;;;;;;;;;;;;;;5050640;28;930;-71
2023/10/07 01:12:25;;;;;;;;;;;;;;;;;;5048850;28;1249;-71
2023/10/07 01:14:52;;;;;;;;;;;;;;;;;;5050598;28;860;-71
2023/10/07 01:17:23;;;;;;;;;;;;;;;;;;5050411;28;798;-70
2023/10/07 01:19:54;;;;;;;;;;;;;;;;;;5050691;28;864;-71
2023/10/07 01:22:23;;;;;;;;;;;;;;;;;;5050101;28;805;-71
2023/10/07 01:24:49;;;;;;;;;;;;;;;;;;5050649;28;881;-71
2023/10/07 01:29:59;;;;;;;;;;;;;;;;;;5050958;28;782;-71
2023/10/07 01:32:31;;;;;;;;;;;;;;;;;;5050380;28;853;-71
2023/10/07 01:34:57;;;;;;;;;;;;;;;;;;5052186;28;885;-71
2023/10/07 01:37:23;;;;;;;;;;;;;;;;;;5052928;28;880;-71
2023/10/07 01:39:49;;;;;;;;;;;;;;;;;;5054230;28;900;-70
2023/10/07 01:42:26;;;;;;;;;;;;;;;;;;5054331;28;859;-70
2023/10/07 01:44:58;;;;;;;;;;;;;;;;;;5054012;28;908;-71
2023/10/07 01:47:24;;;;;;;;;;;;;;;;;;5053666;28;1905;-71
2023/10/07 01:49:56;;;;;;;;;;;;;;;;;;5052443;28;1339;-71
2023/10/07 01:52:26;;;;;;;;;;;;;;;;;;5053737;28;825;-71
2023/10/07 01:54:52;;;;;;;;;;;;;;;;;;5053679;28;884;-70
2023/10/07 01:57:18;;;;;;;;;;;;;;;;;;5053035;28;924;-71
2023/10/07 01:59:45;;;;;;;;;;;;;;;;;;5053500;28;837;-71
2023/10/07 02:02:12;;;;;;;;;;;;;;;;;;5052465;28;821;-70
2023/10/07 02:04:38;;;;;;;;;;;;;;;;;;5052721;28;825;-71
2023/10/07 02:07:03;;;;;;;;;;;;;;;;;;5053340;28;984;-71
2023/10/07 02:09:35;;;;;;;;;;;;;;;;;;5051713;28;1898;-71
2023/10/07 02:12:01;;;;;;;;;;;;;;;;;;5053612;28;939;-70
2023/10/07 02:14:27;;;;;;;;;;;;;;;;;;5052978;28;857;-71
2023/10/07 02:16:53;;;;;;;;;;;;;;;;;;5053401;28;844;-71
2023/10/07 02:19:29;;;;;;;;;;;;;;;;;;5052647;28;971;-71
2023/10/07 02:21:59;;;;;;;;;;;;;;;;;;5053152;28;927;-72
2023/10/07 02:24:31;;;;;;;;;;;;;;;;;;5052829;28;896;-71
2023/10/07 02:27:00;;;;;;;;;;;;;;;;;;5052954;28;1072;-71
2023/10/07 02:29:27;;;;;;;;;;;;;;;;;;5051459;28;1957;-71
2023/10/07 02:31:54;;;;;;;;;;;;;;;;;;5053007;28;1065;-70
2023/10/07 02:34:28;;;;;;;;;;;;;;;;;;5052898;28;840;-71
2023/10/07 02:37:09;;;;;;;;;;;;;;;;;;5051809;28;936;-71
2023/10/07 02:39:45;;;;;;;;;;;;;;;;;;5051371;28;1436;-71
2023/10/07 02:42:11;;;;;;;;;;;;;;;;;;5050923;28;1561;-70
2023/10/07 02:44:38;;;;;;;;;;;;;;;;;;5053055;28;836;-71
2023/10/07 02:47:11;;;;;;;;;;;;;;;;;;5052162;28;853;-71
2023/10/07 02:49:37;;;;;;;;;;;;;;;;;;5053114;28;1909;-70
2023/10/07 02:52:02;;;;;;;;;;;;;;;;;;5053666;28;1053;-71
2023/10/07 02:54:34;;;;;;;;;;;;;;;;;;5051782;28;1215;-71
2023/10/07 02:57:09;;;;;;;;;;;;;;;;;;5052309;28;1270;-71
2023/10/07 02:59:36;;;;;;;;;;;;;;;;;;5053571;28;884;-71
2023/10/07 03:02:20;;;;;;;;;;;;;;;;;;5052481;28;884;-70
2023/10/07 03:05:14;;;;;;;;;;;;;;;;;;5052619;28;967;-71
2023/10/07 03:07:42;;;;;;;;;;;;;;;;;;5052475;28;1907;-71
2023/10/07 03:10:17;;;;;;;;;;;;;;;;;;5052026;28;1032;-71
2023/10/07 03:12:49;;;;;;;;;;;;;;;;;;5051241;28;1190;-71
2023/10/07 03:15:28;;;;;;;;;;;;;;;;;;5051987;28;865;-70
2023/10/07 03:17:54;;;;;;;;;;;;;;;;;;5052614;28;1081;-70
2023/10/07 03:25:49;;;;;;;;;;;;;;;;;;5052491;28;644;-70
2023/10/07 03:28:18;;;;;;;;;;;;;;;;;;5051335;28;1961;-72
2023/10/07 03:30:51;;;;;;;;;;;;;;;;;;5052195;28;797;-72
2023/10/07 03:33:17;;;;;;;;;;;;;;;;;;5051600;28;908;-71
2023/10/07 03:38:18;;;;;;;;;;;;;;;;;;5051207;28;879;-72
2023/10/07 03:40:48;;;;;;;;;;;;;;;;;;5051638;28;954;-71
2023/10/07 03:43:15;;;;;;;;;;;;;;;;;;5050766;28;848;-71
2023/10/07 03:45:40;;;;;;;;;;;;;;;;;;5050356;28;1164;-71
2023/10/07 03:48:22;;;;;;;;;;;;;;;;;;5033086;28;1910;-71
2023/10/07 03:50:48;;;;;;;;;;;;;;;;;;5051300;28;932;-72
2023/10/07 03:53:14;;;;;;;;;;;;;;;;;;5050995;28;821;-71
2023/10/07 03:55:40;;;;;;;;;;;;;;;;;;5051669;28;856;-71
2023/10/07 03:58:06;;;;;;;;;;;;;;;;;;5051044;28;789;-71
2023/10/07 04:00:35;;;;;;;;;;;;;;;;;;5050676;28;867;-72
2023/10/07 04:03:07;;;;;;;;;;;;;;;;;;5050146;28;1322;-71
2023/10/07 04:05:35;;;;;;;;;;;;;;;;;;5050914;28;931;-71
2023/10/07 04:08:02;;;;;;;;;;;;;;;;;;5051374;28;1902;-71
2023/10/07 04:10:36;;;;;;;;;;;;;;;;;;5049317;28;1206;-72
2023/10/07 04:13:07;;;;;;;;;;;;;;;;;;5051065;28;845;-72
2023/10/07 04:15:35;;;;;;;;;;;;;;;;;;5049114;28;1238;-72
2023/10/07 04:18:00;;;;;;;;;;;;;;;;;;5050789;28;912;-71
2023/10/07 04:20:42;;;;;;;;;;;;;;;;;;5050837;28;880;-71
2023/10/07 04:23:07;;;;;;;;;;;;;;;;;;5051514;28;848;-72
2023/10/07 04:25:42;;;;;;;;;;;;;;;;;;5051030;28;896;-71
2023/10/07 04:28:12;;;;;;;;;;;;;;;;;;5051280;28;1963;-71
2023/10/07 04:30:40;;;;;;;;;;;;;;;;;;5051910;28;848;-71
2023/10/07 04:33:08;;;;;;;;;;;;;;;;;;5051802;28;904;-71
2023/10/07 04:35:33;;;;;;;;;;;;;;;;;;5052082;28;793;-71
2023/10/07 04:38:38;;;;;;;;;;;;;;;;;;5050835;28;1119;-71
2023/10/07 04:46:23;;;;;;;;;;;;;;;;;;5050372;28;896;-71
2023/10/07 04:48:55;;;;;;;;;;;;;;;;;;5049243;28;1894;-71
2023/10/07 04:51:36;;;;;;;;;;;;;;;;;;5050484;28;905;-72
2023/10/07 04:54:02;;;;;;;;;;;;;;;;;;5051490;28;876;-71
2023/10/07 04:56:27;;;;;;;;;;;;;;;;;;5049332;28;1307;-71
2023/10/07 04:58:53;;;;;;;;;;;;;;;;;;5051363;28;825;-71
2023/10/07 05:01:31;;;;;;;;;;;;;;;;;;5049208;28;1197;-71
2023/10/07 05:04:15;;;;;;;;;;;;;;;;;;5051225;28;876;-71
2023/10/07 05:06:43;;;;;;;;;;;;;;;;;;5049655;28;946;-71
2023/10/07 05:09:18;;;;;;;;;;;;;;;;;;5051832;28;2048;-71
2023/10/07 05:11:45;;;;;;;;;;;;;;;;;;5054164;28;822;-71
2023/10/07 05:14:11;;;;;;;;;;;;;;;;;;5054159;28;888;-71
2023/10/07 05:16:37;;;;;;;;;;;;;;;;;;5053092;28;1544;-71
2023/10/07 05:19:03;;;;;;;;;;;;;;;;;;5053927;28;829;-71
2023/10/07 05:21:31;;;;;;;;;;;;;;;;;;5053961;28;873;-70
2023/10/07 05:24:01;;;;;;;;;;;;;;;;;;5053525;28;856;-71
2023/10/07 05:26:27;;;;;;;;;;;;;;;;;;5053752;28;876;-70
2023/10/07 05:28:52;;;;;;;;;;;;;;;;;;5053011;28;1975;-71
2023/10/07 05:31:17;;;;;;;;;;;;;;;;;;5052308;28;1352;-70
2023/10/07 05:33:43;;;;;;;;;;;;;;;;;;5054302;28;834;-71
2023/10/07 05:36:13;;;;;;;;;;;;;;;;;;5053973;28;852;-71
2023/10/07 05:38:42;;;;;;;;;;;;;;;;;;5054622;28;907;-72
2023/10/07 05:41:12;;;;;;;;;;;;;;;;;;5053510;28;646;-71
2023/10/07 05:43:38;;;;;;;;;;;;;;;;;;5052707;28;1467;-71
2023/10/07 05:46:03;;;;;;;;;;;;;;;;;;5052599;28;956;-71
2023/10/07 05:48:29;;;;;;;;;;;;;;;;;;5035315;28;1902;-70
2023/10/07 05:50:54;;;;;;;;;;;;;;;;;;5054018;28;959;-71
2023/10/07 05:53:20;;;;;;;;;;;;;;;;;;5053097;28;817;-70
2023/10/07 05:55:46;;;;;;;;;;;;;;;;;;5052491;28;801;-71
2023/10/07 05:58:12;;;;;;;;;;;;;;;;;;5051833;28;1215;-69
2023/10/07 06:00:38;;;;;;;;;;;;;;;;;;5053569;28;876;-71
2023/10/07 06:03:08;;;;;;;;;;;;;;;;;;5053630;28;833;-70
2023/10/07 06:05:37;;;;;;;;;;;;;;;;;;5052826;28;1390;-69
2023/10/07 06:08:04;;;;;;;;;;;;;;;;;;5052375;28;1971;-70
2023/10/07 06:10:33;;;;;;;;;;;;;;;;;;5053259;28;864;-71
2023/10/07 06:12:58;;;;;;;;;;;;;;;;;;5054071;28;949;-70
2023/10/07 06:15:23;;;;;;;;;;;;;;;;;;5053878;28;888;-70
2023/10/07 06:17:49;;;;;;;;;;;;;;;;;;5054672;28;825;-70
2023/10/07 06:20:15;;;;;;;;;;;;;;;;;;5052739;28;840;-70
2023/10/07 06:22:46;;;;;;;;;;;;;;;;;;5054104;28;853;-70
2023/10/07 06:25:12;;;;;;;;;;;;;;;;;;5051904;28;1210;-70
2023/10/07 06:27:39;;;;;;;;;;;;;;;;;;5053990;28;1971;-70
2023/10/07 06:30:04;;;;;;;;;;;;;;;;;;5051880;28;868;-70
2023/10/07 06:32:43;;;;;;;;;;;;;;;;;;5052333;28;904;-70
2023/10/07 06:35:14;;;;;;;;;;;;;;;;;;5051618;28;1340;-70
2023/10/07 06:37:42;;;;;;;;;;;;;;;;;;5051742;28;916;-70
2023/10/07 06:42:53;;;;;;;;;;;;;;;;;;5053146;28;667;-70
2023/10/07 06:45:18;;;;;;;;;;;;;;;;;;5051971;28;900;-70
2023/10/07 06:47:46;;;;;;;;;;;;;;;;;;5052542;28;1902;-70
2023/10/07 06:50:17;;;;;;;;;;;;;;;;;;5051442;28;1305;-70
2023/10/07 06:52:44;;;;;;;;;;;;;;;;;;5052941;28;876;-71
2023/10/07 06:55:09;;;;;;;;;;;;;;;;;;5051882;28;1875;-71
2023/10/07 06:57:34;;;;;;;;;;;;;;;;;;5052550;28;852;-71
2023/10/07 06:59:59;;;;;;;;;;;;;;;;;;5052829;28;865;-70
2023/10/07 07:02:34;;;;;;;;;;;;;;;;;;5052251;28;841;-70
2023/10/07 07:05:00;;;;;;;;;;;;;;;;;;5051685;28;1223;-71
2023/10/07 07:07:25;;;;;;;;;;;;;;;;;;5050531;28;1977;-71
2023/10/07 07:09:50;;;;;;;;;;;;;;;;;;5052724;28;911;-71
2023/10/07 07:12:21;;;;;;;;;;;;;;;;;;5051765;28;1046;-71
2023/10/07 07:15:04;;;;;;;;;;;;;;;;;;5051453;28;1186;-71
2023/10/07 07:17:30;;;;;;;;;;;;;;;;;;5052106;28;903;-71
2023/10/07 07:22:39;;;;;;;;;;;;;;;;;;5052008;28;884;-71
2023/10/07 07:25:10;;;;;;;;;;;;;;;;;;5052236;28;848;-71
2023/10/07 07:27:35;;;;;;;;;;;;;;;;;;5051171;28;1922;-71
2023/10/07 07:30:03;;;;;;;;;;;;;;;;;;5052551;28;781;-71
2023/10/07 07:32:32;;;;;;;;;;;;;;;;;;5051296;28;931;-71
2023/10/07 07:35:02;;;;;;;;;;;;;;;;;;5052217;28;860;-70
2023/10/07 07:37:30;;;;;;;;;;;;;;;;;;5051268;28;892;-71
2023/10/07 07:39:58;;;;;;;;;;;;;;;;;;5052206;28;927;-71
2023/10/07 07:42:27;;;;;;;;;;;;;;;;;;5050543;28;825;-71
2023/10/07 07:44:56;;;;;;;;;;;;;;;;;;5052105;28;909;-71
2023/10/07 07:47:21;;;;;;;;;;;;;;;;;;5051145;28;877;-71
2023/10/07 07:49:47;;;;;;;;;;;;;;;;;;5051677;28;1971;-71
2023/10/07 07:52:15;;;;;;;;;;;;;;;;;;5052118;28;789;-71
2023/10/07 07:54:41;;;;;;;;;;;;;;;;;;5051938;28;805;-71
2023/10/07 07:57:07;;;;;;;;;;;;;;;;;;5051587;28;876;-71
2023/10/07 07:59:33;;;;;;;;;;;;;;;;;;5051076;28;856;-71
2023/10/07 08:02:11;;;;;;;;;;;;;;;;;;5050198;28;1421;-71
2023/10/07 08:04:47;;;;;;;;;;;;;;;;;;5050071;28;904;-71
2023/10/07 08:07:24;;;;;;;;;;;;;;;;;;5051343;28;1006;-71
2023/10/07 08:09:50;;;;;;;;;;;;;;;;;;5051266;28;1999;-71
2023/10/07 08:12:19;;;;;;;;;;;;;;;;;;5050079;28;1223;-71
2023/10/07 08:14:47;;;;;;;;;;;;;;;;;;5052381;28;943;-72
2023/10/07 08:17:19;;;;;;;;;;;;;;;;;;5052030;28;816;-71
2023/10/07 08:19:44;;;;;;;;;;;;;;;;;;5050756;28;1366;-71
2023/10/07 08:22:18;;;;;;;;;;;;;;;;;;5051242;28;1308;-72
2023/10/07 08:24:44;;;;;;;;;;;;;;;;;;5052570;28;833;-70
2023/10/07 08:27:43;;;;;;;;;;;;;;;;;;5052594;28;849;-70
2023/10/07 08:29:55;;;;;;;;;;;;;;;;;;5051846;28;1598;-70
2023/10/07 08:32:35;;;;;;;;;;;;;;;;;;5050641;28;936;-70
2023/10/07 08:35:01;;;;;;;;;;;;;;;;;;5051823;28;876;-70
2023/10/07 08:37:32;;;;;;;;;;;;;;;;;;5051714;28;947;-71
2023/10/07 08:40:08;;;;;;;;;;;;;;;;;;5051858;28;959;-71
2023/10/07 08:42:36;;;;;;;;;;;;;;;;;;5050772;28;909;-71
2023/10/07 08:45:01;;;;;;;;;;;;;;;;;;5053256;28;873;-71
2023/10/07 08:47:27;;;;;;;;;;;;;;;;;;5053923;28;841;-70
2023/10/07 08:49:56;;;;;;;;;;;;;;;;;;5055819;28;1167;-70
2023/10/07 08:52:27;;;;;;;;;;;;;;;;;;5055437;28;912;-71
2023/10/07 08:54:53;;;;;;;;;;;;;;;;;;5055950;28;940;-71
2023/10/07 08:57:22;;;;;;;;;;;;;;;;;;5054596;28;944;-71
2023/10/07 08:59:49;;;;;;;;;;;;;;;;;;5055553;28;910;-71
2023/10/07 09:02:26;;;;;;;;;;;;;;;;;;5055685;28;809;-71
2023/10/07 09:04:51;;;;;;;;;;;;;;;;;;5054939;28;869;-71
2023/10/07 09:07:20;;;;;;;;;;;;;;;;;;5054860;28;1000;-71
2023/10/07 09:09:46;;;;;;;;;;;;;;;;;;5055075;28;1972;-71
2023/10/07 09:14:52;;;;;;;;;;;;;;;;;;5054813;28;855;-71
2023/10/07 09:17:20;;;;;;;;;;;;;;;;;;5054849;28;869;-71
2023/10/07 09:19:48;;;;;;;;;;;;;;;;;;5055616;28;879;-71
2023/10/07 09:22:15;;;;;;;;;;;;;;;;;;5054474;28;829;-71
2023/10/07 09:24:43;;;;;;;;;;;;;;;;;;5054092;28;864;-71
2023/10/07 09:27:13;;;;;;;;;;;;;;;;;;5054380;28;825;-71
2023/10/07 09:29:38;;;;;;;;;;;;;;;;;;5053669;28;1874;-72
2023/10/07 09:32:22;;;;;;;;;;;;;;;;;;5054461;28;864;-71
2023/10/07 09:34:47;;;;;;;;;;;;;;;;;;5069215;28;1588;-70
2023/10/07 09:37:13;;;;;;;;;;;;;;;;;;5054337;28;864;-70
2023/10/07 09:39:45;;;;;;;;;;;;;;;;;;5053395;28;833;-70
2023/10/07 09:45:09;;;;;;;;;;;;;;;;;;5054351;28;882;-70
2023/10/07 09:47:38;;;;;;;;;;;;;;;;;;5053503;28;1973;-70
2023/10/07 09:50:25;;;;;;;;;;;;;;;;;;5053893;28;1069;-70
2023/10/07 09:53:14;;;;;;;;;;;;;;;;;;5053383;28;861;-70
2023/10/07 09:55:48;;;;;;;;;;;;;;;;;;5052589;28;884;-71
2023/10/07 09:58:26;;;;;;;;;;;;;;;;;;5054509;28;904;-70
2023/10/07 10:01:05;;;;;;;;;;;;;;;;;;5054885;28;817;-70
2023/10/07 10:03:44;;;;;;;;;;;;;;;;;;5054451;28;904;-70
2023/10/07 10:06:16;;;;;;;;;;;;;;;;;;5054539;28;891;-71
2023/10/07 10:08:58;;;;;;;;;;;;;;;;;;5052883;28;1906;-71
2023/10/07 10:16:44;;;;;;;;;;;;;;;;;;5051387;28;920;-70
2023/10/07 10:19:37;;;;;;;;;;;;;;;;;;5054845;28;836;-71
2023/10/07 10:22:07;;;;;;;;;;;;;;;;;;5054541;28;1847;-70
2023/10/07 10:24:36;;;;;;;;;;;;;;;;;;5051998;28;1351;-71
2023/10/07 10:27:04;;;;;;;;;;;;;;;;;;5054222;28;801;-71
2023/10/07 10:29:33;;;;;;;;;;;;;;;;;;5053260;28;1975;-71
2023/10/07 10:32:02;;;;;;;;;;;;;;;;;;5053103;28;925;-71
2023/10/07 10:34:27;;;;;;;;;;;;;;;;;;5052683;28;964;-71
2023/10/07 10:36:56;;;;;;;;;;;;;;;;;;5052594;28;882;-71
2023/10/07 10:39:26;;;;;;;;;;;;;;;;;;5052385;28;909;-70
2023/10/07 10:41:53;;;;;;;;;;;;;;;;;;5052930;28;860;-70
2023/10/07 10:44:20;;;;;;;;;;;;;;;;;;5051254;28;1225;-71
2023/10/07 10:46:47;;;;;;;;;;;;;;;;;;5052782;28;872;-71
2023/10/07 10:49:21;;;;;;;;;;;;;;;;;;5052335;28;1961;-70
2023/10/07 10:51:48;;;;;;;;;;;;;;;;;;5052348;28;769;-72
2023/10/07 10:54:14;;;;;;;;;;;;;;;;;;5052536;28;868;-71
2023/10/07 10:56:49;;;;;;;;;;;;;;;;;;5051705;28;975;-71
2023/10/07 10:59:15;;;;;;;;;;;;;;;;;;5052493;28;902;-71
2023/10/07 11:01:44;;;;;;;;;;;;;;;;;;5052027;28;899;-71
2023/10/07 11:04:12;;;;;;;;;;;;;;;;;;5052242;28;861;-70
2023/10/07 11:06:39;;;;;;;;;;;;;;;;;;5051102;28;860;-70
2023/10/07 11:09:04;;;;;;;;;;;;;;;;;;5052538;28;1895;-70
2023/10/07 11:11:30;;;;;;;;;;;;;;;;;;5051919;28;904;-71
2023/10/07 11:13:56;;;;;;;;;;;;;;;;;;5052571;28;844;-71
2023/10/07 11:16:22;;;;;;;;;;;;;;;;;;5051701;28;845;-70
2023/10/07 11:18:49;;;;;;;;;;;;;;;;;;5051948;28;833;-71
2023/10/07 11:21:19;;;;;;;;;;;;;;;;;;5052127;28;908;-71
2023/10/07 11:23:45;;;;;;;;;;;;;;;;;;5051716;28;856;-71
2023/10/07 11:26:11;;;;;;;;;;;;;;;;;;5052205;28;892;-71
2023/10/07 11:28:37;;;;;;;;;;;;;;;;;;5051489;28;1953;-70
2023/10/07 11:31:02;;;;;;;;;;;;;;;;;;5052104;28;1023;-70
2023/10/07 11:33:28;;;;;;;;;;;;;;;;;;5051457;28;893;-71
2023/10/07 11:35:58;;;;;;;;;;;;;;;;;;5050687;28;896;-70
2023/10/07 11:38:25;;;;;;;;;;;;;;;;;;5050383;28;888;-71
2023/10/07 11:40:50;;;;;;;;;;;;;;;;;;5053052;28;848;-71
2023/10/07 11:43:16;;;;;;;;;;;;;;;;;;5052931;28;916;-71
2023/10/07 11:45:43;;;;;;;;;;;;;;;;;;5052623;28;873;-70
2023/10/07 11:48:09;;;;;;;;;;;;;;;;;;5053206;28;1907;-70
2023/10/07 11:50:37;;;;;;;;;;;;;;;;;;5053085;28;904;-70
2023/10/07 11:53:03;;;;;;;;;;;;;;;;;;5052880;28;971;-71
2023/10/07 11:55:31;;;;;;;;;;;;;;;;;;5052366;28;849;-71
2023/10/07 11:57:58;;;;;;;;;;;;;;;;;;5051877;28;881;-70
2023/10/07 12:00:28;;;;;;;;;;;;;;;;;;5050619;28;794;-71
2023/10/07 12:02:57;;;;;;;;;;;;;;;;;;5051710;28;885;-70
2023/10/07 12:05:28;;;;;;;;;;;;;;;;;;5051303;28;877;-71
2023/10/07 12:07:55;;;;;;;;;;;;;;;;;;5050395;28;2235;-70
2023/10/07 12:10:21;;;;;;;;;;;;;;;;;;5050031;28;1407;-71
2023/10/07 12:12:49;;;;;;;;;;;;;;;;;;5051401;28;840;-70
2023/10/07 12:15:17;;;;;;;;;;;;;;;;;;5049798;28;904;-70
2023/10/07 12:17:45;;;;;;;;;;;;;;;;;;5049982;28;853;-71
2023/10/07 12:20:12;;;;;;;;;;;;;;;;;;5050591;28;809;-70
2023/10/07 12:22:42;;;;;;;;;;;;;;;;;;5050754;28;849;-71
2023/10/07 12:25:08;;;;;;;;;;;;;;;;;;5051492;28;1015;-71
2023/10/07 12:27:36;;;;;;;;;;;;;;;;;;5057222;28;1342;-71
2023/10/07 12:30:02;;;;;;;;;;;;;;;;;;5054232;28;1957;-71
2023/10/07 12:32:27;;;;;;;;;;;;;;;;;;5049523;28;829;-71
2023/10/07 12:34:52;;;;;;;;;;;;;;;;;;5048527;28;1156;-71
2023/10/07 12:37:20;;;;;;;;;;;;;;;;;;5049385;28;912;-71
2023/10/07 12:39:49;;;;;;;;;;;;;;;;;;5049952;28;908;-71
2023/10/07 12:42:14;;;;;;;;;;;;;;;;;;5050847;28;896;-71
2023/10/07 12:44:40;;;;;;;;;;;;;;;;;;5049180;28;861;-71
2023/10/07 12:47:08;;;;;;;;;;;;;;;;;;5049283;28;695;-72
2023/10/07 12:49:38;;;;;;;;;;;;;;;;;;5050409;28;1963;-71
2023/10/07 12:52:04;;;;;;;;;;;;;;;;;;5050710;28;987;-71
2023/10/07 12:54:30;;;;;;;;;;;;;;;;;;5048443;28;1254;-71
2023/10/07 12:56:55;;;;;;;;;;;;;;;;;;5050972;28;1022;-71
2023/10/07 12:59:23;;;;;;;;;;;;;;;;;;5051325;28;896;-71
2023/10/07 13:01:50;;;;;;;;;;;;;;;;;;5049624;28;908;-71
2023/10/07 13:04:15;;;;;;;;;;;;;;;;;;5050863;28;849;-71
2023/10/07 13:06:44;;;;;;;;;;;;;;;;;;5032347;28;1390;-71
2023/10/07 13:09:16;;;;;;;;;;;;;;;;;;5050566;28;1969;-71
2023/10/07 13:11:42;;;;;;;;;;;;;;;;;;5050465;28;832;-71
2023/10/07 13:14:08;;;;;;;;;;;;;;;;;;5049148;28;896;-71
2023/10/07 13:16:37;;;;;;;;;;;;;;;;;;5050439;28;923;-71
2023/10/07 13:19:02;;;;;;;;;;;;;;;;;;5050777;28;888;-71
2023/10/07 13:21:29;;;;;;;;;;;;;;;;;;5050715;28;924;-71
2023/10/07 13:23:56;;;;;;;;;;;;;;;;;;5051804;28;897;-71
2023/10/07 13:26:23;;;;;;;;;;;;;;;;;;5050111;28;1219;-71
2023/10/07 13:28:48;;;;;;;;;;;;;;;;;;5051113;28;1973;-71
2023/10/07 13:31:14;;;;;;;;;;;;;;;;;;5055351;28;904;-71
2023/10/07 13:33:39;;;;;;;;;;;;;;;;;;5054266;28;1325;-71
2023/10/07 13:36:08;;;;;;;;;;;;;;;;;;5055798;28;903;-71
2023/10/07 13:38:34;;;;;;;;;;;;;;;;;;5054902;28;844;-71
2023/10/07 13:41:00;;;;;;;;;;;;;;;;;;5055157;28;986;-71
2023/10/07 13:43:26;;;;;;;;;;;;;;;;;;5055623;28;853;-71
2023/10/07 13:45:52;;;;;;;;;;;;;;;;;;5055016;28;813;-72
2023/10/07 13:48:17;;;;;;;;;;;;;;;;;;5055049;28;1902;-70
2023/10/07 13:50:45;;;;;;;;;;;;;;;;;;5060857;28;1262;-70
2023/10/07 13:53:12;;;;;;;;;;;;;;;;;;5074012;28;900;-71
2023/10/07 13:58:07;;;;;;;;;;;;;;;;;;5073830;28;714;-71
2023/10/07 14:03:02;;;;;;;;;;;;;;;;;;5073463;28;819;-71
2023/10/07 14:05:28;;;;;;;;;;;;;;;;;;5073245;28;1035;-70
2023/10/07 14:07:54;;;;;;;;;;;;;;;;;;5073576;28;1971;-71
2023/10/07 14:10:22;;;;;;;;;;;;;;;;;;5072886;28;1177;-72
2023/10/07 14:12:48;;;;;;;;;;;;;;;;;;5072360;28;1149;-72
2023/10/07 14:15:15;;;;;;;;;;;;;;;;;;5073331;28;916;-72
2023/10/07 14:17:40;;;;;;;;;;;;;;;;;;5071782;28;888;-72
2023/10/07 14:20:06;;;;;;;;;;;;;;;;;;5073545;28;785;-72
2023/10/07 14:22:31;;;;;;;;;;;;;;;;;;5073133;28;876;-72
2023/10/07 14:24:57;;;;;;;;;;;;;;;;;;5073414;28;824;-73
2023/10/07 14:27:23;;;;;;;;;;;;;;;;;;5072167;28;1202;-71
2023/10/07 14:29:52;;;;;;;;;;;;;;;;;;5055308;28;1967;-72
2023/10/07 14:32:17;;;;;;;;;;;;;;;;;;5072432;28;1329;-72
2023/10/07 14:34:43;;;;;;;;;;;;;;;;;;5072023;28;1276;-71
2023/10/07 14:37:10;;;;;;;;;;;;;;;;;;5073112;28;920;-70
2023/10/07 14:39:35;;;;;;;;;;;;;;;;;;5072769;28;1283;-70
2023/10/07 14:42:01;;;;;;;;;;;;;;;;;;5071019;28;916;-71
2023/10/07 14:44:26;;;;;;;;;;;;;;;;;;5073529;28;844;-71
2023/10/07 14:46:51;;;;;;;;;;;;;;;;;;5071220;28;1249;-71
2023/10/07 14:49:18;;;;;;;;;;;;;;;;;;5072110;28;1903;-71
2023/10/07 14:51:44;;;;;;;;;;;;;;;;;;5072663;28;804;-71
2023/10/07 14:54:10;;;;;;;;;;;;;;;;;;5072707;28;946;-72
2023/10/07 14:56:36;;;;;;;;;;;;;;;;;;5071444;28;840;-70
2023/10/07 14:59:01;;;;;;;;;;;;;;;;;;5071707;28;1203;-72
2023/10/07 15:01:27;;;;;;;;;;;;;;;;;;5071244;28;1346;-71
2023/10/07 15:03:54;;;;;;;;;;;;;;;;;;5071766;28;1392;-72
2023/10/07 15:06:21;;;;;;;;;;;;;;;;;;5071277;28;1434;-70
2023/10/07 15:08:46;;;;;;;;;;;;;;;;;;5072290;28;1992;-71
2023/10/07 15:11:23;;;;;;;;;;;;;;;;;;5072999;28;824;-71
2023/10/07 15:13:49;;;;;;;;;;;;;;;;;;5063828;28;1147;-72
2023/10/07 15:16:14;;;;;;;;;;;;;;;;;;5047809;28;1133;-70
2023/10/07 15:18:44;;;;;;;;;;;;;;;;;;5034108;28;1228;-72
2023/10/07 15:21:11;;;;;;;;;;;;;;;;;;5051490;28;1367;-71
2023/10/07 15:23:36;;;;;;;;;;;;;;;;;;5051650;28;814;-71
2023/10/07 15:26:01;;;;;;;;;;;;;;;;;;5052173;28;837;-71
2023/10/07 15:28:27;;;;;;;;;;;;;;;;;;5051828;28;1992;-71
2023/10/07 15:30:53;;;;;;;;;;;;;;;;;;5046546;28;1563;-71
2023/10/07 15:33:20;;;;;;;;;;;;;;;;;;5062226;28;1184;-71
2023/10/07 15:35:47;;;;;;;;;;;;;;;;;;5072013;28;786;-71
2023/10/07 15:38:12;;;;;;;;;;;;;;;;;;5072155;28;801;-70
2023/10/07 15:40:42;;;;;;;;;;;;;;;;;;5070751;28;904;-70
2023/10/07 15:43:08;;;;;;;;;;;;;;;;;;5072417;28;856;-70
2023/10/07 15:45:43;;;;;;;;;;;;;;;;;;5072067;28;832;-70
2023/10/07 15:48:11;;;;;;;;;;;;;;;;;;5070385;28;1886;-70
2023/10/07 15:50:38;;;;;;;;;;;;;;;;;;5071927;28;919;-71
2023/10/07 15:53:04;;;;;;;;;;;;;;;;;;5071838;28;820;-71
2023/10/07 15:55:29;;;;;;;;;;;;;;;;;;5053868;28;1347;-70
2023/10/07 15:57:55;;;;;;;;;;;;;;;;;;5070086;28;1328;-70
2023/10/07 16:00:20;;;;;;;;;;;;;;;;;;5071519;28;828;-72
2023/10/07 16:02:45;;;;;;;;;;;;;;;;;;5071363;28;995;-72
2023/10/07 16:05:11;;;;;;;;;;;;;;;;;;5070510;28;1027;-72
2023/10/07 16:07:38;;;;;;;;;;;;;;;;;;5070620;28;932;-72
2023/10/07 16:10:12;;;;;;;;;;;;;;;;;;5071400;28;1902;-72
2023/10/07 16:12:38;;;;;;;;;;;;;;;;;;5069682;28;799;-72
2023/10/07 16:15:05;;;;;;;;;;;;;;;;;;5071317;28;841;-72
2023/10/07 16:17:31;;;;;;;;;;;;;;;;;;5070679;28;904;-72
2023/10/07 16:19:57;;;;;;;;;;;;;;;;;;5070476;28;813;-72
2023/10/07 16:22:23;;;;;;;;;;;;;;;;;;5069886;28;1229;-72
2023/10/07 16:24:48;;;;;;;;;;;;;;;;;;5069742;28;892;-72
2023/10/07 16:27:13;;;;;;;;;;;;;;;;;;5071260;28;825;-72
2023/10/07 16:29:40;;;;;;;;;;;;;;;;;;5069860;28;1897;-72
2023/10/07 16:32:05;;;;;;;;;;;;;;;;;;5071683;28;813;-72
2023/10/07 16:34:30;;;;;;;;;;;;;;;;;;5071424;28;817;-72
2023/10/07 16:36:55;;;;;;;;;;;;;;;;;;5071510;28;955;-72
2023/10/07 16:39:21;;;;;;;;;;;;;;;;;;5069869;28;1170;-72
2023/10/07 16:41:47;;;;;;;;;;;;;;;;;;5071215;28;935;-72
2023/10/07 16:44:12;;;;;;;;;;;;;;;;;;5071545;28;892;-72
2023/10/07 16:46:38;;;;;;;;;;;;;;;;;;5071168;28;903;-72
2023/10/07 16:49:04;;;;;;;;;;;;;;;;;;5071261;28;1909;-72
2023/10/07 16:51:29;;;;;;;;;;;;;;;;;;5070791;28;935;-72
2023/10/07 16:53:55;;;;;;;;;;;;;;;;;;5071587;28;990;-72
2023/10/07 16:56:21;;;;;;;;;;;;;;;;;;5071097;28;849;-72
2023/10/07 16:58:46;;;;;;;;;;;;;;;;;;5069334;28;957;-72
2023/10/07 17:01:12;;;;;;;;;;;;;;;;;;5069849;28;844;-72
2023/10/07 17:03:38;;;;;;;;;;;;;;;;;;5070460;28;1343;-72
2023/10/07 17:06:05;;;;;;;;;;;;;;;;;;5073181;28;988;-72
2023/10/07 17:08:31;;;;;;;;;;;;;;;;;;5074070;28;1973;-72
2023/10/07 17:10:57;;;;;;;;;;;;;;;;;;5074658;28;904;-72
2023/10/07 17:13:26;;;;;;;;;;;;;;;;;;5074823;28;860;-72
2023/10/07 17:15:52;;;;;;;;;;;;;;;;;;5074856;28;848;-72
2023/10/07 17:18:18;;;;;;;;;;;;;;;;;;5075068;28;1167;-72
2023/10/07 17:20:43;;;;;;;;;;;;;;;;;;5075550;28;980;-72
2023/10/07 17:23:09;;;;;;;;;;;;;;;;;;5075545;28;888;-71
2023/10/07 17:25:35;;;;;;;;;;;;;;;;;;5073339;28;989;-72
2023/10/07 17:28:02;;;;;;;;;;;;;;;;;;5057219;28;1898;-72
2023/10/07 17:30:30;;;;;;;;;;;;;;;;;;5074894;28;912;-72
2023/10/07 17:32:55;;;;;;;;;;;;;;;;;;5074882;28;861;-72
2023/10/07 17:35:21;;;;;;;;;;;;;;;;;;5073083;28;1328;-72
2023/10/07 17:37:46;;;;;;;;;;;;;;;;;;5073934;28;912;-72
2023/10/07 17:40:13;;;;;;;;;;;;;;;;;;5073996;28;924;-72
2023/10/07 17:42:41;;;;;;;;;;;;;;;;;;5073977;28;923;-72
2023/10/07 17:45:12;;;;;;;;;;;;;;;;;;5074237;28;911;-72
2023/10/07 17:47:45;;;;;;;;;;;;;;;;;;5072498;28;793;-72
2023/10/07 17:50:11;;;;;;;;;;;;;;;;;;5072798;28;1965;-72
2023/10/07 17:52:36;;;;;;;;;;;;;;;;;;5071957;28;904;-72
2023/10/07 17:55:03;;;;;;;;;;;;;;;;;;5074007;28;1379;-72
2023/10/07 17:57:28;;;;;;;;;;;;;;;;;;5073008;28;848;-72
2023/10/07 17:59:54;;;;;;;;;;;;;;;;;;5072528;28;1215;-72
2023/10/07 18:02:20;;;;;;;;;;;;;;;;;;5073382;28;902;-72
2023/10/07 18:04:48;;;;;;;;;;;;;;;;;;5072308;28;1201;-72
2023/10/07 18:07:14;;;;;;;;;;;;;;;;;;5073374;28;1006;-72
2023/10/07 18:09:39;;;;;;;;;;;;;;;;;;5055268;28;1988;-72